Thompson Falls, Montana
Current Conditions -  °F | °C
As of 10:53 AM on Saturday 25 Oct 2014 (Local Time) from KMLP Reporting Station
Moderate Fog Moderate Fog  
Wind Chill: 27°   Ceiling: 100
Heat Index: 36°   Visibility: 0mi
Dew Point: 36°   Wind: 14mph
Humidity: 100%   Direction: 170°S
Pressure: 29.81"   Gusts: NA
Location:  47.6°N, 115.34°W
Report Text: KMLP 251653Z AUTO 17012KT M1/4SM FG VV001 02/02 A2981 RMK AO2 SLP056 T00220022
Loading
Personal Weather Stations






























Interactive Weather Map
Tropical Storm Tracking
New forecast layout! Learn more

10-Day Weather Forecast

Advertisements
Track Severe Weather on mobile